createdAt,value
2019-01-06T00:00:44.308Z,5.20
2019-01-06T00:03:37.978Z,6.07
2019-01-06T00:06:28.486Z,4.77
2019-01-06T00:09:15.886Z,5.67
2019-01-06T00:12:03.060Z,5.23
2019-01-06T00:14:50.455Z,5.23
2019-01-06T00:17:48.361Z,4.80
2019-01-06T00:20:45.923Z,5.10
2019-01-06T00:23:34.821Z,5.73
2019-01-06T00:26:22.237Z,5.33
2019-01-06T00:29:24.083Z,5.67
2019-01-06T00:32:24.660Z,4.67
2019-01-06T00:35:13.107Z,4.40
2019-01-06T00:38:13.602Z,4.23
2019-01-06T00:41:17.191Z,5.10
2019-01-06T00:43:51.728Z,4.70
2019-01-06T00:46:46.335Z,4.20
2019-01-06T00:49:39.862Z,4.67
2019-01-06T00:52:40.403Z,4.40
2019-01-06T00:55:32.609Z,4.70
2019-01-06T00:58:32.906Z,4.90
2019-01-06T01:01:27.350Z,5.00
2019-01-06T01:04:34.378Z,4.70
2019-01-06T01:07:21.620Z,4.60
2019-01-06T01:10:08.760Z,4.67
2019-01-06T01:12:55.757Z,4.23
2019-01-06T01:15:43.050Z,5.30
2019-01-06T01:18:31.514Z,4.20
2019-01-06T01:21:23.320Z,4.37
2019-01-06T01:24:10.660Z,4.43
2019-01-06T01:27:01.876Z,4.93
2019-01-06T01:29:49.380Z,4.17
2019-01-06T01:32:41.927Z,4.60
2019-01-06T01:35:30.479Z,4.80
2019-01-06T01:38:17.581Z,5.43
2019-01-06T01:41:06.060Z,4.50
2019-01-06T01:43:54.898Z,4.47
2019-01-06T01:46:42.135Z,5.33
2019-01-06T01:49:48.647Z,4.13
2019-01-06T01:52:30.546Z,5.00
2019-01-06T01:55:19.509Z,4.70
2019-01-06T01:58:11.015Z,4.77
2019-01-06T02:01:02.831Z,5.10
2019-01-06T02:03:42.093Z,6.50
2019-01-06T02:06:30.555Z,7.13
2019-01-06T02:09:17.902Z,7.20
2019-01-06T02:12:06.361Z,7.93
2019-01-06T02:14:57.626Z,9.13
2019-01-06T02:17:58.685Z,8.90
2019-01-06T02:20:47.132Z,8.20
2019-01-06T02:23:41.398Z,6.90
2019-01-06T02:26:34.155Z,8.00
2019-01-06T02:29:21.259Z,6.80
2019-01-06T02:32:15.553Z,5.90
2019-01-06T02:35:00.636Z,5.80
2019-01-06T02:37:47.966Z,5.30
2019-01-06T02:40:35.379Z,5.30
2019-01-06T02:43:22.767Z,5.60
2019-01-06T02:46:07.273Z,4.00
2019-01-06T02:49:08.370Z,4.67
2019-01-06T02:51:56.785Z,4.13
2019-01-06T02:54:48.246Z,4.33
2019-01-06T02:57:43.082Z,4.10
2019-01-06T03:00:30.891Z,4.63
2019-01-06T03:03:38.384Z,4.10
2019-01-06T03:06:45.233Z,3.87
2019-01-06T03:09:33.513Z,3.93
2019-01-06T03:12:27.865Z,4.00
2019-01-06T03:15:15.624Z,3.00
2019-01-06T03:18:01.307Z,3.17
2019-01-06T03:20:55.905Z,3.23
2019-01-06T03:23:43.317Z,3.00
2019-01-06T03:26:37.534Z,3.80
2019-01-06T03:29:38.237Z,4.07
2019-01-06T03:32:19.486Z,2.73
2019-01-06T03:35:10.758Z,3.00
2019-01-06T03:38:01.976Z,2.60
2019-01-06T03:40:49.033Z,2.73
2019-01-06T03:43:37.374Z,2.57
2019-01-06T03:46:44.184Z,2.43
2019-01-06T03:49:31.426Z,3.30
2019-01-06T03:52:24.521Z,3.20
2019-01-06T03:55:11.628Z,2.83
2019-01-06T03:57:50.539Z,2.60
2019-01-06T04:00:38.993Z,2.83
2019-01-06T04:03:33.685Z,2.47
2019-01-06T04:06:22.112Z,2.27
2019-01-06T04:09:16.188Z,3.00
2019-01-06T04:12:02.592Z,3.00
2019-01-06T04:14:58.623Z,2.63
2019-01-06T04:17:39.070Z,2.13
2019-01-06T04:20:28.518Z,2.50
2019-01-06T04:23:32.031Z,3.20
2019-01-06T04:26:19.320Z,2.77
2019-01-06T04:29:14.377Z,2.90
2019-01-06T04:32:02.230Z,3.13
2019-01-06T04:35:06.199Z,3.10
2019-01-06T04:37:53.301Z,3.77
2019-01-06T04:40:41.417Z,3.10
2019-01-06T04:43:22.763Z,3.73
2019-01-06T04:46:10.227Z,3.00
2019-01-06T04:49:05.044Z,3.00
2019-01-06T04:51:42.975Z,3.80
2019-01-06T04:54:43.682Z,3.30
2019-01-06T04:57:38.956Z,3.93
2019-01-06T05:00:27.074Z,3.30
2019-01-06T05:03:15.873Z,3.70
2019-01-06T05:06:19.055Z,4.07
2019-01-06T05:09:06.504Z,4.37
2019-01-06T05:11:58.761Z,4.07
2019-01-06T05:14:42.561Z,6.07
2019-01-06T05:17:36.191Z,5.47
2019-01-06T05:20:24.833Z,5.53
2019-01-06T05:23:11.852Z,5.03
2019-01-06T05:26:04.132Z,5.07
2019-01-06T05:28:53.307Z,6.17
2019-01-06T05:31:50.831Z,6.50
2019-01-06T05:34:33.362Z,5.67
2019-01-06T05:37:20.331Z,5.07
2019-01-06T05:40:07.763Z,5.83
2019-01-06T05:42:56.208Z,5.43
2019-01-06T05:45:45.109Z,5.20
2019-01-06T05:48:32.394Z,4.80
2019-01-06T05:51:19.640Z,5.83
2019-01-06T05:54:11.199Z,5.70
2019-01-06T05:56:58.963Z,5.80
2019-01-06T05:59:46.096Z,5.87
2019-01-06T06:02:40.436Z,6.30
2019-01-06T06:05:29.202Z,5.80
2019-01-06T06:08:17.054Z,7.13
2019-01-06T06:11:07.573Z,5.40
2019-01-06T06:13:56.194Z,6.80
2019-01-06T06:16:48.792Z,5.60
2019-01-06T06:19:44.036Z,6.30
2019-01-06T06:22:29.269Z,5.53
2019-01-06T06:25:35.839Z,5.60
2019-01-06T06:28:23.407Z,6.47
2019-01-06T06:31:10.592Z,4.97
2019-01-06T06:33:55.628Z,5.93
2019-01-06T06:36:46.901Z,6.73
2019-01-06T06:39:41.161Z,6.60
2019-01-06T06:42:29.630Z,6.80
2019-01-06T06:45:17.758Z,7.13
2019-01-06T06:48:06.227Z,7.63
2019-01-06T06:51:03.911Z,5.90
2019-01-06T06:53:51.716Z,6.23
2019-01-06T06:56:46.008Z,7.07
2019-01-06T06:59:35.479Z,7.57
2019-01-06T07:03:12.282Z,7.53
2019-01-06T07:06:03.337Z,6.17
2019-01-06T07:08:57.902Z,6.97
2019-01-06T07:11:52.131Z,7.90
2019-01-06T07:14:36.826Z,7.40
2019-01-06T07:18:10.078Z,7.70
2019-01-06T07:21:02.246Z,7.10
2019-01-06T07:23:59.345Z,7.43
2019-01-06T07:26:46.976Z,6.80
2019-01-06T07:29:50.904Z,6.87
2019-01-06T07:32:39.760Z,5.90
2019-01-06T07:35:34.567Z,5.97
2019-01-06T07:38:22.395Z,5.93
2019-01-06T07:41:10.852Z,6.07
2019-01-06T07:43:58.233Z,5.77
2019-01-06T07:46:56.938Z,6.20
2019-01-06T07:49:44.329Z,5.83
2019-01-06T07:52:33.609Z,5.60
2019-01-06T07:55:28.249Z,5.73
2019-01-06T07:58:26.336Z,5.50
2019-01-06T08:01:26.549Z,4.93
2019-01-06T08:04:11.294Z,5.40
2019-01-06T08:07:15.160Z,6.67
2019-01-06T08:10:04.569Z,6.03
2019-01-06T08:13:02.255Z,5.00
2019-01-06T08:15:49.514Z,5.20
2019-01-06T08:18:44.437Z,5.30
2019-01-06T08:21:31.472Z,5.53
2019-01-06T08:24:38.633Z,4.93
2019-01-06T08:27:27.094Z,4.03
2019-01-06T08:30:21.574Z,5.13
2019-01-06T08:33:08.969Z,5.00
2019-01-06T08:35:56.329Z,5.43
2019-01-06T08:38:56.911Z,5.27
2019-01-06T08:41:44.298Z,5.67
2019-01-06T08:44:31.622Z,5.07
2019-01-06T08:47:25.932Z,5.97
2019-01-06T08:50:21.381Z,5.47
2019-01-06T08:53:15.596Z,5.73
2019-01-06T08:56:22.261Z,5.97
2019-01-06T08:59:11.525Z,5.20
2019-01-06T09:02:06.035Z,5.83
2019-01-06T09:05:00.299Z,5.60
2019-01-06T09:07:55.509Z,6.20
2019-01-06T09:10:38.695Z,5.90
2019-01-06T09:13:31.535Z,5.20
2019-01-06T09:16:26.035Z,4.17
2019-01-06T09:19:21.631Z,4.60
2019-01-06T09:22:28.709Z,4.60
2019-01-06T09:25:20.032Z,4.40
2019-01-06T09:28:07.204Z,4.73
2019-01-06T09:31:01.752Z,5.40
2019-01-06T09:34:11.531Z,4.80
2019-01-06T09:37:00.427Z,4.47
2019-01-06T09:40:00.684Z,3.70
2019-01-06T09:42:47.816Z,4.40
2019-01-06T09:45:42.397Z,5.47
2019-01-06T09:48:45.969Z,4.30
2019-01-06T09:51:44.583Z,4.77
2019-01-06T09:54:45.216Z,4.47
2019-01-06T09:57:37.366Z,4.83
2019-01-06T10:00:24.680Z,4.27
2019-01-06T10:03:11.429Z,4.30
2019-01-06T10:05:58.496Z,5.00
2019-01-06T10:08:44.496Z,4.13
2019-01-06T10:11:45.037Z,4.20
2019-01-06T10:14:33.823Z,4.87
2019-01-06T10:17:25.473Z,3.90
2019-01-06T10:20:21.988Z,4.60
2019-01-06T10:23:09.023Z,4.67
2019-01-06T10:26:06.849Z,4.70
2019-01-06T10:29:04.150Z,4.73
2019-01-06T10:32:08.402Z,4.87
2019-01-06T10:35:05.573Z,5.40
2019-01-06T10:38:02.584Z,4.70
2019-01-06T10:41:06.154Z,6.60
2019-01-06T10:43:53.518Z,5.80
2019-01-06T10:46:54.583Z,5.80
2019-01-06T10:49:55.224Z,5.67
2019-01-06T10:52:45.977Z,4.93
2019-01-06T10:55:37.264Z,5.27
2019-01-06T10:58:24.358Z,4.87
2019-01-06T11:01:18.640Z,4.90
2019-01-06T11:04:06.760Z,5.47
2019-01-06T11:07:10.630Z,5.30
2019-01-06T11:10:08.464Z,5.80
2019-01-06T11:12:55.729Z,5.40
2019-01-06T11:15:42.796Z,5.20
2019-01-06T11:18:30.119Z,5.20
2019-01-06T11:21:17.302Z,5.37
2019-01-06T11:24:08.801Z,5.10
2019-01-06T11:26:52.406Z,5.27
2019-01-06T11:29:46.968Z,4.73
2019-01-06T11:32:34.893Z,4.73
2019-01-06T11:35:27.939Z,5.30
2019-01-06T11:38:06.922Z,4.70
2019-01-06T11:40:54.445Z,5.30
2019-01-06T11:43:48.980Z,4.60
2019-01-06T11:46:43.653Z,5.57
2019-01-06T11:49:44.547Z,4.77
2019-01-06T11:52:31.658Z,5.70
2019-01-06T11:55:23.988Z,5.00
2019-01-06T11:58:08.806Z,4.57
2019-01-06T12:01:12.337Z,4.67
2019-01-06T12:03:59.493Z,4.67
2019-01-06T12:06:46.614Z,4.93
2019-01-06T12:09:33.691Z,5.27
2019-01-06T12:12:22.147Z,4.60
2019-01-06T12:15:16.608Z,4.43
2019-01-06T12:18:03.914Z,5.03
2019-01-06T12:20:58.575Z,4.93
2019-01-06T12:24:06.041Z,4.50
2019-01-06T12:26:53.126Z,4.73
2019-01-06T12:29:44.686Z,5.20
2019-01-06T12:32:42.478Z,5.00
2019-01-06T12:35:29.874Z,5.10
2019-01-06T12:38:30.515Z,4.53
2019-01-06T12:41:17.563Z,4.20
2019-01-06T12:44:14.927Z,4.10
2019-01-06T12:47:02.045Z,4.77
2019-01-06T12:49:49.375Z,3.60
2019-01-06T12:52:36.423Z,3.60
2019-01-06T12:55:17.005Z,3.73
2019-01-06T12:58:12.318Z,4.17
2019-01-06T13:01:16.123Z,4.87
2019-01-06T13:04:03.179Z,3.90
2019-01-06T13:06:51.594Z,3.57
2019-01-06T13:09:41.568Z,3.80
2019-01-06T13:12:36.311Z,2.80
2019-01-06T13:15:24.995Z,2.73
2019-01-06T13:18:22.649Z,2.83
2019-01-06T13:21:09.716Z,2.60
2019-01-06T13:24:08.918Z,2.03
2019-01-06T13:27:09.946Z,2.20
2019-01-06T13:29:52.964Z,6.50
2019-01-06T13:32:47.686Z,3.03
2019-01-06T13:35:45.005Z,3.60
2019-01-06T13:38:32.227Z,3.13
2019-01-06T13:41:23.498Z,3.07
2019-01-06T13:44:11.923Z,3.47
2019-01-06T13:47:06.404Z,3.33
2019-01-06T13:49:50.429Z,3.50
2019-01-06T13:52:41.663Z,3.17
2019-01-06T13:55:29.758Z,3.57
2019-01-06T13:58:17.187Z,3.17
2019-01-06T14:01:04.510Z,3.10
2019-01-06T14:03:51.674Z,3.10
2019-01-06T14:06:39.104Z,3.27
2019-01-06T14:09:26.492Z,3.33
2019-01-06T14:12:20.895Z,3.90
2019-01-06T14:15:25.903Z,3.30
2019-01-06T14:18:17.872Z,3.50
2019-01-06T14:21:05.597Z,3.63
2019-01-06T14:23:53.361Z,3.90
2019-01-06T14:27:00.198Z,3.73
2019-01-06T14:29:57.676Z,4.30
2019-01-06T14:32:45.246Z,4.37
2019-01-06T14:35:36.502Z,5.00
2019-01-06T14:38:24.000Z,4.60
2019-01-06T14:41:15.803Z,5.60
2019-01-06T14:44:03.405Z,4.07
2019-01-06T14:46:54.937Z,4.63
2019-01-06T14:49:49.351Z,4.70
2019-01-06T14:52:41.086Z,5.10
2019-01-06T14:55:35.849Z,4.27
2019-01-06T14:58:23.043Z,4.77
2019-01-06T15:01:20.583Z,5.50
2019-01-06T15:04:10.685Z,5.13
2019-01-06T15:06:55.166Z,6.20
2019-01-06T15:09:52.896Z,5.50
2019-01-06T15:12:41.348Z,5.90
2019-01-06T15:15:32.921Z,5.20
2019-01-06T15:18:18.223Z,5.97
2019-01-06T15:21:10.009Z,5.83
2019-01-06T15:23:58.245Z,6.00
2019-01-06T15:27:04.822Z,5.87
2019-01-06T15:29:59.440Z,6.20
2019-01-06T15:32:46.543Z,6.90
2019-01-06T15:35:37.931Z,7.50
2019-01-06T15:38:32.464Z,7.57
2019-01-06T15:41:29.814Z,7.50
2019-01-06T15:44:33.915Z,7.70
2019-01-06T15:47:25.189Z,8.40
2019-01-06T15:50:19.650Z,7.97
2019-01-06T15:53:17.221Z,7.80
2019-01-06T15:56:02.308Z,7.90
2019-01-06T15:58:47.924Z,8.47
2019-01-06T16:01:48.628Z,8.10
2019-01-06T16:04:39.962Z,8.57
2019-01-06T16:07:27.268Z,8.53
2019-01-06T16:10:33.819Z,8.70
2019-01-06T16:13:22.231Z,8.50
2019-01-06T16:16:11.130Z,8.20
2019-01-06T16:19:08.684Z,10.07
2019-01-06T16:21:56.283Z,9.63
2019-01-06T16:24:43.587Z,9.80
2019-01-06T16:27:31.193Z,9.60
2019-01-06T16:30:25.559Z,9.20
2019-01-06T16:33:13.158Z,8.90
2019-01-06T16:36:04.735Z,8.77
2019-01-06T16:38:53.208Z,7.37
2019-01-06T16:41:40.522Z,8.20
2019-01-06T16:44:44.208Z,7.87
2019-01-06T16:47:31.518Z,8.73
2019-01-06T16:50:38.294Z,8.43
2019-01-06T16:53:35.779Z,8.70
2019-01-06T16:56:36.495Z,7.87
2019-01-06T16:59:34.032Z,8.80
2019-01-06T17:02:25.301Z,8.33
2019-01-06T17:05:15.105Z,9.37
2019-01-06T17:08:02.504Z,9.03
2019-01-06T17:10:55.076Z,8.10
2019-01-06T17:13:45.364Z,7.97
2019-01-06T17:16:27.610Z,9.90
2019-01-06T17:19:12.721Z,9.70
2019-01-06T17:22:13.403Z,8.13
2019-01-06T17:25:17.267Z,9.30
2019-01-06T17:28:18.192Z,8.40
2019-01-06T17:31:22.092Z,8.77
2019-01-06T17:34:13.096Z,7.30
2019-01-06T17:37:13.794Z,7.90
2019-01-06T17:40:08.970Z,7.50
2019-01-06T17:42:56.225Z,7.73
2019-01-06T17:45:44.836Z,8.00
2019-01-06T17:48:25.760Z,8.50
2019-01-06T17:51:26.339Z,7.70
2019-01-06T17:54:24.529Z,7.53
2019-01-06T17:57:28.231Z,8.37
2019-01-06T18:00:19.238Z,7.23
2019-01-06T18:03:08.062Z,6.87
2019-01-06T18:05:55.159Z,7.27
2019-01-06T18:08:59.032Z,7.27
2019-01-06T18:11:59.050Z,7.83
2019-01-06T18:14:47.880Z,6.87
2019-01-06T18:17:35.400Z,8.40
2019-01-06T18:20:33.139Z,7.03
2019-01-06T18:23:20.527Z,7.30
2019-01-06T18:26:07.954Z,7.77
2019-01-06T18:29:01.838Z,7.83
2019-01-06T18:31:49.136Z,7.57
2019-01-06T18:34:37.663Z,7.93
2019-01-06T18:37:35.034Z,7.50
2019-01-06T18:40:38.884Z,7.70
2019-01-06T18:43:30.145Z,8.47
2019-01-06T18:46:33.706Z,7.87
2019-01-06T18:49:19.952Z,7.87
2019-01-06T18:52:17.619Z,8.40
2019-01-06T18:55:05.240Z,9.00
2019-01-06T18:58:03.069Z,6.90
2019-01-06T19:00:54.520Z,8.77
2019-01-06T19:03:30.884Z,8.90
2019-01-06T19:06:18.151Z,8.37
2019-01-06T19:09:05.697Z,8.47
2019-01-06T19:12:03.206Z,8.57
2019-01-06T19:14:46.109Z,28.20
2019-01-06T19:17:40.512Z,9.53
2019-01-06T19:20:22.105Z,9.07
2019-01-06T19:23:29.086Z,8.37
2019-01-06T19:26:17.003Z,7.63
2019-01-06T19:29:24.163Z,8.27
2019-01-06T19:32:11.224Z,7.70
2019-01-06T19:34:53.148Z,9.80
2019-01-06T19:37:54.530Z,8.87
2019-01-06T19:40:46.371Z,9.30
2019-01-06T19:43:54.047Z,8.83
2019-01-06T19:46:39.435Z,8.43
2019-01-06T19:49:28.689Z,8.30
2019-01-06T19:52:22.161Z,8.67
2019-01-06T19:55:09.409Z,9.20
2019-01-06T19:58:02.221Z,9.10
2019-01-06T20:00:41.996Z,8.73
2019-01-06T20:03:39.718Z,8.60
2019-01-06T20:06:26.924Z,8.47
2019-01-06T20:09:15.118Z,9.07
2019-01-06T20:12:03.439Z,9.43
2019-01-06T20:14:50.646Z,8.93
2019-01-06T20:17:45.905Z,9.27
2019-01-06T20:20:47.573Z,9.60
2019-01-06T20:23:35.652Z,8.47
2019-01-06T20:26:18.509Z,9.30
2019-01-06T20:29:07.018Z,8.37
2019-01-06T20:32:01.762Z,9.10
2019-01-06T20:34:59.080Z,9.43
2019-01-06T20:38:02.905Z,9.70
2019-01-06T20:40:51.362Z,9.73
2019-01-06T20:43:46.044Z,10.80
2019-01-06T20:46:52.726Z,9.67
2019-01-06T20:49:41.555Z,10.47
2019-01-06T20:52:41.382Z,9.93
2019-01-06T20:55:27.031Z,9.70
2019-01-06T20:58:15.190Z,11.90
2019-01-06T21:01:03.669Z,11.43
2019-01-06T21:04:07.213Z,10.73
2019-01-06T21:06:56.066Z,10.13
2019-01-06T21:09:46.124Z,10.57
2019-01-06T21:12:51.377Z,10.30
2019-01-06T21:15:38.953Z,10.00
2019-01-06T21:18:25.991Z,10.50
2019-01-06T21:21:32.882Z,11.37
2019-01-06T21:24:24.322Z,11.17
2019-01-06T21:27:27.607Z,10.40
2019-01-06T21:30:15.677Z,11.90
2019-01-06T21:33:06.757Z,11.70
2019-01-06T21:36:07.627Z,10.53
2019-01-06T21:38:54.784Z,10.30
2019-01-06T21:41:43.289Z,11.47
2019-01-06T21:44:50.212Z,10.27
2019-01-06T21:47:53.730Z,10.73
2019-01-06T21:50:41.010Z,11.30
2019-01-06T21:53:35.932Z,11.93
2019-01-06T21:56:24.680Z,12.47
2019-01-06T21:59:11.807Z,12.20
2019-01-06T22:02:00.105Z,12.10
2019-01-06T22:04:54.312Z,14.10
2019-01-06T22:07:42.797Z,11.53
2019-01-06T22:10:29.880Z,11.60
2019-01-06T22:13:27.130Z,12.83
2019-01-06T22:16:11.848Z,11.90
2019-01-06T22:19:09.546Z,11.90
2019-01-06T22:21:56.524Z,11.10
2019-01-06T22:24:44.264Z,10.90
2019-01-06T22:27:45.153Z,11.33
2019-01-06T22:30:46.396Z,11.00
2019-01-06T22:33:34.865Z,13.20
2019-01-06T22:36:21.733Z,11.50
2019-01-06T22:39:12.388Z,12.13
2019-01-06T22:41:59.586Z,13.60
2019-01-06T22:44:54.128Z,11.70
2019-01-06T22:47:40.202Z,12.30
2019-01-06T22:50:27.888Z,13.30
2019-01-06T22:53:25.760Z,13.40
2019-01-06T22:56:14.192Z,13.10
2019-01-06T22:59:11.905Z,13.67
2019-01-06T23:01:59.341Z,15.13
2019-01-06T23:04:51.326Z,14.73
2019-01-06T23:07:45.796Z,15.77
2019-01-06T23:10:34.225Z,14.80
2019-01-06T23:13:20.768Z,15.27
2019-01-06T23:16:09.622Z,14.50
2019-01-06T23:19:03.978Z,15.90
2019-01-06T23:21:51.261Z,13.17
2019-01-06T23:24:45.478Z,14.33
2019-01-06T23:27:37.814Z,15.67
2019-01-06T23:30:29.408Z,15.60
2019-01-06T23:33:16.784Z,15.83
2019-01-06T23:36:05.187Z,16.97
2019-01-06T23:38:53.676Z,14.20
2019-01-06T23:41:51.412Z,14.37
2019-01-06T23:44:55.128Z,14.70
2019-01-06T23:47:52.405Z,14.10
2019-01-06T23:50:39.546Z,15.30
2019-01-06T23:53:28.021Z,14.57
2019-01-06T23:56:16.489Z,15.63
2019-01-06T23:59:17.019Z,15.23
